Rechercher aéroport 
image banner adimage banner adimage banner ad
image banner ad

KCIC - Chico Muni

Situé à Chico, United States

ICAO - CIC, IATA - CIC

Données fournies par Airmate  

Information générale

Coordonnées: N39°47'43" W121°51'30"
Élévation : 240 feet MSL.
Variation magnétique : 16° East
Voir autres Aéroports à California

Données opérationnelles

Special qualification required
Heure actuelle UTC:
Heure actuelle locale:
Météo
METAR: KCIC 291347Z VRB05KT 10SM BKN150 25/12 A2991 RMK FUHZ ALQDS
Voir NOTAMs / SUP AIP / TFR affectant cet aéroport [VIEW]
Fréquences de communication: [VIEW]

Pistes:

Identifiant RWYQFULongueur (ft)Largeur (ft)SurfaceLDA (ft)
13R147°300060ASPH3000
31L327°300060ASPH3000
13L147°6724150ASPH6724
31R327°6724150ASPH6724

Coordonnées de l'aéroport

Adresse: Chico United States

Autres services d'aviation

Écoles de pilotage

Northgate Aviation, Inc.

Northgate Aviation, Inc.

Vue satellite de KCIC